Time;durP1;ratioP1;P1;durP2;ratioP2;P2;SDS_P1;SDS_P2;PMS_P1;PMS_P2;Temp;Humidity;BMP_temperature;BMP_pressure;BME280_temperature;BME280_humidity;BME280_pressure;Samples;Min_cycle;Max_cycle;Signal;HPM_P1;HPM_P2
2023/07/27 00:02:27;;;;;;;12.35;6.10;;;;;11.00;96262.00;;;;8226495;28;20858;-73
2023/07/27 00:06:30;;;;;;;12.52;5.13;;;;;10.90;96260.00;;;;8230298;28;20198;-73
2023/07/27 00:10:37;;;;;;;13.88;5.50;;;;;10.80;96250.00;;;;8233434;28;20201;-73
2023/07/27 00:14:41;;;;;;;11.95;6.38;;;;;10.80;96252.00;;;;8230307;28;20242;-73
2023/07/27 00:18:45;;;;;;;12.05;5.60;;;;;10.90;96250.00;;;;8226055;28;20324;-73
2023/07/27 00:22:55;;;;;;;13.18;5.93;;;;;10.90;96249.00;;;;8233709;28;21358;-73
2023/07/27 00:26:58;;;;;;;10.50;5.70;;;;;10.90;96245.00;;;;8234092;28;20206;-73
2023/07/27 00:31:04;;;;;;;12.02;6.25;;;;;10.90;96236.00;;;;8235819;28;20206;-73
2023/07/27 00:35:11;;;;;;;13.95;7.15;;;;;10.80;96242.00;;;;8229852;28;20260;-73
2023/07/27 00:39:14;;;;;;;17.85;7.03;;;;;10.80;96244.00;;;;8233718;28;20816;-73
2023/07/27 00:43:17;;;;;;;9.10;5.88;;;;;10.80;96247.00;;;;8224317;28;20257;-73
2023/07/27 00:47:21;;;;;;;152.93;9.60;;;;;10.80;96240.00;;;;8235320;28;20304;-73
2023/07/27 00:51:26;;;;;;;12.68;5.72;;;;;10.70;96248.00;;;;8237462;28;20247;-73
2023/07/27 00:55:30;;;;;;;18.45;7.65;;;;;10.70;96242.00;;;;8235305;28;20237;-73
2023/07/27 00:59:34;;;;;;;25.17;8.05;;;;;10.60;96235.00;;;;8227508;28;20322;-73
2023/07/27 01:03:38;;;;;;;12.50;6.78;;;;;10.60;96239.00;;;;8238752;28;20758;-72
2023/07/27 01:07:42;;;;;;;20.87;7.37;;;;;10.60;96223.00;;;;8227815;28;20204;-72
2023/07/27 01:11:50;;;;;;;17.27;6.82;;;;;10.70;96223.00;;;;8228472;28;20916;-73
2023/07/27 01:15:58;;;;;;;22.80;7.35;;;;;10.70;96214.00;;;;8236777;28;20260;-72
2023/07/27 01:20:16;;;;;;;17.50;7.20;;;;;10.70;96212.00;;;;8236715;28;20205;-72
2023/07/27 01:24:57;;;;;;;25.55;8.95;;;;;10.60;96214.00;;;;8248567;28;20206;-72
2023/07/27 01:29:13;;;;;;;21.13;7.72;;;;;10.50;96212.00;;;;8242131;28;20849;-73
2023/07/27 01:33:25;;;;;;;21.85;8.20;;;;;10.50;96209.00;;;;8241995;28;20290;-72
2023/07/27 01:37:30;;;;;;;16.90;6.47;;;;;10.50;96204.00;;;;8239359;28;20294;-72
2023/07/27 01:41:41;;;;;;;41.97;8.35;;;;;10.40;96207.00;;;;8246175;28;20212;-72
2023/07/27 01:45:45;;;;;;;12.27;5.68;;;;;10.50;96204.00;;;;8246628;28;20209;-73
2023/07/27 01:49:53;;;;;;;41.00;8.60;;;;;10.50;96203.00;;;;8229519;28;20867;-72
2023/07/27 01:53:56;;;;;;;360.50;19.17;;;;;10.40;96199.00;;;;8235966;28;20265;-72
2023/07/27 01:58:04;;;;;;;591.42;26.52;;;;;10.30;96196.00;;;;8235226;28;20266;-72
2023/07/27 02:02:13;;;;;;;27.30;7.63;;;;;10.30;96197.00;;;;8244127;28;20238;-72
2023/07/27 02:06:17;;;;;;;286.55;14.48;;;;;10.20;96200.00;;;;8237349;28;20797;-74
2023/07/27 02:10:25;;;;;;;514.78;25.77;;;;;10.20;96194.00;;;;8234149;28;20253;-72
2023/07/27 02:14:41;;;;;;;140.23;10.93;;;;;10.10;96193.00;;;;8227739;28;20254;-72
2023/07/27 02:18:46;;;;;;;90.72;5.18;;;;;10.10;96185.00;;;;8230868;28;20200;-72
2023/07/27 02:22:54;;;;;;;166.85;10.43;;;;;10.10;96193.00;;;;8243825;28;20585;-72
2023/07/27 02:26:58;;;;;;;305.73;15.52;;;;;10.00;96188.00;;;;8232908;28;20204;-72
2023/07/27 02:31:01;;;;;;;178.90;10.48;;;;;10.00;96191.00;;;;8225733;28;20625;-72
2023/07/27 02:35:08;;;;;;;82.20;7.15;;;;;10.00;96188.00;;;;8234626;28;20263;-72
2023/07/27 02:39:15;;;;;;;105.45;9.68;;;;;10.10;96183.00;;;;8243099;28;20712;-73
2023/07/27 02:43:19;;;;;;;496.38;21.90;;;;;10.10;96182.00;;;;8231669;28;20211;-72
2023/07/27 02:47:23;;;;;;;408.90;19.30;;;;;10.00;96183.00;;;;8233960;28;20300;-73
2023/07/27 02:51:26;;;;;;;182.55;12.30;;;;;9.90;96185.00;;;;8239307;28;20206;-72
2023/07/27 02:55:31;;;;;;;148.50;10.02;;;;;9.90;96184.00;;;;8239626;28;20284;-72
2023/07/27 02:59:34;;;;;;;136.13;13.70;;;;;9.90;96181.00;;;;8230066;28;20298;-73
2023/07/27 03:03:39;;;;;;;816.75;38.05;;;;;9.90;96184.00;;;;8305840;23;20239;-72
2023/07/27 03:07:42;;;;;;;399.52;20.10;;;;;10.00;96182.00;;;;8254432;28;20207;-72
2023/07/27 03:11:47;;;;;;;87.03;11.60;;;;;10.00;96183.00;;;;8269948;28;20919;-72
2023/07/27 03:15:55;;;;;;;37.05;12.00;;;;;10.00;96186.00;;;;8269314;28;20261;-72
2023/07/27 03:19:58;;;;;;;59.10;10.82;;;;;10.10;96187.00;;;;8261816;28;20194;-72
2023/07/27 03:24:03;;;;;;;33.20;12.43;;;;;10.20;96198.00;;;;8262421;28;20212;-72
2023/07/27 03:28:09;;;;;;;33.50;11.50;;;;;10.20;96200.00;;;;8260033;28;20681;-72
2023/07/27 03:32:12;;;;;;;29.38;10.98;;;;;10.30;96201.00;;;;8257102;28;20324;-71
2023/07/27 03:36:17;;;;;;;29.58;11.20;;;;;10.50;96199.00;;;;8257975;28;20286;-71
2023/07/27 03:40:21;;;;;;;42.92;12.98;;;;;10.50;96201.00;;;;8262720;28;20301;-72
2023/07/27 03:44:25;;;;;;;32.55;11.95;;;;;10.70;96199.00;;;;8256195;28;20205;-73
2023/07/27 03:48:30;;;;;;;45.25;13.77;;;;;10.90;96199.00;;;;8252702;28;20290;-73
2023/07/27 03:52:33;;;;;;;44.13;15.75;;;;;11.00;96187.00;;;;8261184;28;20210;-73
2023/07/27 03:56:36;;;;;;;36.20;12.88;;;;;11.20;96187.00;;;;8256713;28;20269;-73
2023/07/27 04:00:45;;;;;;;34.28;12.45;;;;;11.40;96177.00;;;;8260949;28;21205;-73
2023/07/27 04:04:49;;;;;;;82.07;14.60;;;;;11.50;96193.00;;;;8235795;28;20266;-73
2023/07/27 04:08:55;;;;;;;52.38;13.55;;;;;11.60;96184.00;;;;8228382;28;20290;-73
2023/07/27 04:13:02;;;;;;;36.40;12.25;;;;;11.70;96178.00;;;;8238736;28;20595;-72
2023/07/27 04:17:09;;;;;;;32.53;12.40;;;;;11.80;96175.00;;;;8234269;28;20907;-72
2023/07/27 04:21:12;;;;;;;64.97;15.60;;;;;12.00;96180.00;;;;8238262;28;20237;-72
2023/07/27 04:25:16;;;;;;;51.70;15.52;;;;;12.10;96180.00;;;;8233184;28;20753;-70
2023/07/27 04:29:21;;;;;;;101.72;17.70;;;;;12.10;96178.00;;;;8233809;28;20214;-70
2023/07/27 04:33:27;;;;;;;165.82;18.17;;;;;12.30;96188.00;;;;8236390;28;20292;-70
2023/07/27 04:37:30;;;;;;;94.10;14.88;;;;;12.40;96182.00;;;;8230889;28;20648;-73
2023/07/27 04:41:35;;;;;;;158.75;16.40;;;;;12.40;96186.00;;;;8234502;28;20590;-71
2023/07/27 04:45:39;;;;;;;289.42;20.48;;;;;12.50;96179.00;;;;8243386;28;20213;-70
2023/07/27 04:49:43;;;;;;;59.88;13.98;;;;;12.60;96172.00;;;;8235272;28;20216;-71
2023/07/27 04:53:49;;;;;;;114.05;12.90;;;;;12.80;96183.00;;;;8230022;28;20576;-73
2023/07/27 04:57:53;;;;;;;67.57;12.50;;;;;13.00;96179.00;;;;8233712;28;20787;-72
2023/07/27 05:01:57;;;;;;;69.78;11.75;;;;;13.10;96175.00;;;;8232937;28;20575;-73
2023/07/27 05:06:04;;;;;;;93.70;12.70;;;;;13.30;96172.00;;;;8223783;28;20325;-71
2023/07/27 05:10:08;;;;;;;29.20;10.60;;;;;13.50;96172.00;;;;8242443;28;20203;-69
2023/07/27 05:14:11;;;;;;;30.38;10.90;;;;;13.60;96170.00;;;;8243140;28;20242;-69
2023/07/27 05:18:15;;;;;;;26.30;10.27;;;;;13.60;96166.00;;;;8243408;28;20238;-69
2023/07/27 05:22:24;;;;;;;16.50;8.93;;;;;13.60;96161.00;;;;8241737;28;20301;-71
2023/07/27 05:26:27;;;;;;;18.00;8.60;;;;;13.70;96169.00;;;;8248131;28;20234;-73
2023/07/27 05:30:31;;;;;;;17.20;8.82;;;;;13.80;96158.00;;;;8247881;28;20289;-71
2023/07/27 05:34:34;;;;;;;17.50;8.57;;;;;14.00;96160.00;;;;8229509;28;21076;-69
2023/07/27 05:38:39;;;;;;;12.30;7.78;;;;;14.20;96169.00;;;;8238881;28;20326;-72
2023/07/27 05:42:48;;;;;;;15.85;8.48;;;;;14.40;96160.00;;;;8237406;28;20254;-71
2023/07/27 05:46:59;;;;;;;17.00;8.95;;;;;14.60;96172.00;;;;8232869;28;20229;-73
2023/07/27 05:51:03;;;;;;;16.67;8.00;;;;;14.80;96164.00;;;;8234925;28;20213;-71
2023/07/27 05:55:08;;;;;;;14.27;8.57;;;;;15.00;96169.00;;;;8240726;28;20234;-72
2023/07/27 05:59:11;;;;;;;14.18;7.85;;;;;15.30;96171.00;;;;8238729;28;20209;-73
2023/07/27 06:03:25;;;;;;;11.82;7.93;;;;;15.70;96165.00;;;;8227515;28;20358;-73
2023/07/27 06:07:28;;;;;;;12.45;7.30;;;;;16.10;96166.00;;;;8230847;28;20679;-72
2023/07/27 06:11:32;;;;;;;10.77;7.32;;;;;16.40;96168.00;;;;8227507;28;20206;-71
2023/07/27 06:15:37;;;;;;;8.02;5.80;;;;;16.60;96170.00;;;;8229426;28;20655;-72
2023/07/27 06:19:41;;;;;;;8.13;5.55;;;;;16.70;96167.00;;;;8229257;28;20313;-72
2023/07/27 06:23:48;;;;;;;7.07;5.25;;;;;17.00;96168.00;;;;8230642;28;20210;-71
2023/07/27 06:27:55;;;;;;;6.65;5.13;;;;;17.10;96165.00;;;;8230395;28;20318;-70
2023/07/27 06:31:58;;;;;;;8.93;5.53;;;;;17.20;96166.00;;;;8212754;28;20578;-71
2023/07/27 06:36:02;;;;;;;7.60;6.07;;;;;17.40;96167.00;;;;8235788;28;20234;-70
2023/07/27 06:40:06;;;;;;;10.10;5.57;;;;;17.60;96158.00;;;;8233871;28;20265;-70
2023/07/27 06:44:13;;;;;;;6.93;5.47;;;;;17.90;96155.00;;;;8225283;28;20263;-71
2023/07/27 06:48:16;;;;;;;7.65;5.75;;;;;18.30;96154.00;;;;8234206;28;20234;-71
2023/07/27 06:52:20;;;;;;;10.00;5.93;;;;;18.50;96162.00;;;;8240190;28;20211;-68
2023/07/27 06:56:25;;;;;;;5.75;5.15;;;;;18.50;96147.00;;;;8243649;28;20810;-70
2023/07/27 07:00:31;;;;;;;5.25;4.68;;;;;18.40;96151.00;;;;8242634;28;20225;-69
2023/07/27 07:04:35;;;;;;;5.72;5.13;;;;;18.20;96157.00;;;;8236785;28;20234;-70
2023/07/27 07:08:42;;;;;;;4.65;4.25;;;;;18.40;96139.00;;;;8239933;28;20214;-71
2023/07/27 07:12:45;;;;;;;6.35;4.68;;;;;18.50;96147.00;;;;8239776;28;20407;-71
2023/07/27 07:16:50;;;;;;;6.40;4.57;;;;;18.40;96146.00;;;;8241247;28;20234;-70
2023/07/27 07:20:54;;;;;;;6.45;3.85;;;;;18.30;96141.00;;;;8240348;28;20257;-71
2023/07/27 07:24:57;;;;;;;6.32;4.25;;;;;18.60;96139.00;;;;8239373;28;20877;-71
2023/07/27 07:29:01;;;;;;;4.70;3.90;;;;;19.00;96142.00;;;;8242247;28;20203;-71
2023/07/27 07:33:06;;;;;;;4.95;3.72;;;;;19.00;96133.00;;;;8242116;28;20206;-70
2023/07/27 07:37:10;;;;;;;6.68;3.50;;;;;19.20;96139.00;;;;8234973;28;20847;-70
2023/07/27 07:41:13;;;;;;;4.65;3.85;;;;;19.20;96131.00;;;;8232015;28;20243;-68
2023/07/27 07:45:17;;;;;;;4.45;3.47;;;;;19.80;96132.00;;;;8236241;28;20222;-70
2023/07/27 07:49:25;;;;;;;4.15;3.30;;;;;20.30;96133.00;;;;8235101;28;20211;-71
2023/07/27 07:53:28;;;;;;;18.60;3.70;;;;;20.40;96128.00;;;;8238649;28;20650;-70
2023/07/27 07:57:37;;;;;;;4.00;3.05;;;;;20.40;96137.00;;;;8235989;28;20258;-70
2023/07/27 08:01:42;;;;;;;4.70;2.90;;;;;20.20;96138.00;;;;8237422;28;20687;-71
2023/07/27 08:05:48;;;;;;;3.63;2.75;;;;;20.00;96139.00;;;;8239879;28;20257;-70
2023/07/27 08:09:51;;;;;;;3.10;2.80;;;;;19.90;96132.00;;;;8233991;28;20999;-70
2023/07/27 08:13:55;;;;;;;6.18;2.90;;;;;19.80;96131.00;;;;8231119;28;20245;-69
2023/07/27 08:17:58;;;;;;;3.67;2.85;;;;;19.80;96135.00;;;;8241376;28;20226;-69
2023/07/27 08:22:07;;;;;;;3.38;3.08;;;;;19.80;96128.00;;;;8236787;28;20226;-69
2023/07/27 08:26:11;;;;;;;4.10;2.95;;;;;20.20;96124.00;;;;8235056;28;20319;-70
2023/07/27 08:30:14;;;;;;;4.00;2.60;;;;;20.80;96121.00;;;;8236276;28;20314;-69
2023/07/27 08:34:17;;;;;;;6.35;3.28;;;;;21.20;96113.00;;;;8245088;28;20230;-69
2023/07/27 08:38:28;;;;;;;3.10;2.80;;;;;21.60;96111.00;;;;8228035;28;20265;-69
2023/07/27 08:42:37;;;;;;;6.57;2.67;;;;;21.70;96112.00;;;;8227698;28;20207;-69
2023/07/27 08:46:42;;;;;;;4.60;2.85;;;;;21.60;96106.00;;;;8222214;28;20203;-69
2023/07/27 08:50:48;;;;;;;3.15;2.88;;;;;21.40;96110.00;;;;8224057;28;20829;-68
2023/07/27 08:54:53;;;;;;;4.25;2.78;;;;;21.30;96111.00;;;;8227873;28;20218;-68
2023/07/27 08:59:00;;;;;;;5.35;3.28;;;;;21.20;96115.00;;;;8237281;28;20228;-69
2023/07/27 09:03:07;;;;;;;5.32;3.45;;;;;20.80;96105.00;;;;8229328;28;20322;-68
2023/07/27 09:07:13;;;;;;;5.70;3.47;;;;;20.80;96109.00;;;;8228451;28;20293;-69
2023/07/27 09:11:31;;;;;;;2.95;2.55;;;;;20.70;96104.00;;;;8226070;28;20207;-68
2023/07/27 09:15:45;;;;;;;3.80;2.67;;;;;20.80;96106.00;;;;8228543;28;20880;-69
2023/07/27 09:19:51;;;;;;;5.15;2.75;;;;;20.70;96103.00;;;;8229214;28;20910;-68
2023/07/27 09:23:58;;;;;;;3.03;2.70;;;;;20.90;96097.00;;;;8238988;28;20652;-67
2023/07/27 09:28:04;;;;;;;6.30;3.22;;;;;21.30;96098.00;;;;8229676;28;20763;-66
2023/07/27 09:32:10;;;;;;;2.90;2.70;;;;;21.80;96098.00;;;;8226730;28;20195;-68
2023/07/27 09:36:20;;;;;;;4.80;3.03;;;;;21.70;96095.00;;;;8232315;28;20330;-68
2023/07/27 09:40:25;;;;;;;2.80;2.45;;;;;21.80;96091.00;;;;8232112;28;20290;-68
2023/07/27 09:44:30;;;;;;;2.50;2.40;;;;;21.90;96078.00;;;;8230911;28;20218;-68
2023/07/27 09:48:34;;;;;;;3.55;2.80;;;;;22.00;96081.00;;;;8225277;28;20207;-68
2023/07/27 09:52:39;;;;;;;4.00;3.15;;;;;22.20;96075.00;;;;8225752;28;20246;-67
2023/07/27 09:56:45;;;;;;;2.95;2.70;;;;;22.20;96070.00;;;;8227999;28;20227;-68
2023/07/27 10:00:53;;;;;;;6.88;2.90;;;;;22.00;96057.00;;;;8230474;28;20278;-67
2023/07/27 10:04:58;;;;;;;2.90;2.70;;;;;22.00;96044.00;;;;8228276;28;20238;-67
2023/07/27 10:09:01;;;;;;;5.95;3.03;;;;;21.80;96044.00;;;;8228024;28;20227;-67
2023/07/27 10:13:12;;;;;;;4.53;3.03;;;;;21.90;96042.00;;;;8221895;28;20295;-67
2023/07/27 10:17:20;;;;;;;3.67;2.65;;;;;22.00;96038.00;;;;8232133;28;20235;-67
2023/07/27 10:21:24;;;;;;;3.97;2.40;;;;;22.30;96037.00;;;;8238112;28;20207;-67
2023/07/27 10:26:01;;;;;;;4.35;2.60;;;;;22.80;96029.00;;;;8227679;28;20343;-67
2023/07/27 10:30:11;;;;;;;3.00;2.42;;;;;23.10;96030.00;;;;8225933;28;20293;-67
2023/07/27 10:34:18;;;;;;;4.63;2.38;;;;;23.30;96033.00;;;;8227823;28;20552;-67
2023/07/27 10:38:28;;;;;;;2.88;2.33;;;;;23.20;96036.00;;;;8224592;28;21003;-67
2023/07/27 10:42:34;;;;;;;3.95;2.10;;;;;23.50;96025.00;;;;8229518;28;20302;-67
2023/07/27 10:46:38;;;;;;;3.30;2.63;;;;;24.10;96023.00;;;;8228256;28;20364;-67
2023/07/27 10:50:45;;;;;;;3.10;2.58;;;;;24.20;96016.00;;;;8231666;28;20230;-67
2023/07/27 10:54:50;;;;;;;2.67;2.47;;;;;24.20;96006.00;;;;8231963;28;20225;-66
2023/07/27 10:58:58;;;;;;;2.58;2.38;;;;;24.40;96003.00;;;;8230299;28;20704;-66
2023/07/27 11:03:02;;;;;;;6.38;2.60;;;;;24.80;95999.00;;;;8237906;28;20843;-66
2023/07/27 11:07:06;;;;;;;2.70;2.15;;;;;24.90;95993.00;;;;8223353;28;20212;-67
2023/07/27 11:11:21;;;;;;;3.25;2.53;;;;;25.30;95987.00;;;;8233269;28;20623;-67
2023/07/27 11:15:26;;;;;;;3.70;2.53;;;;;25.40;95971.00;;;;8227985;28;20292;-67
2023/07/27 11:19:32;;;;;;;3.75;2.50;;;;;25.40;95974.00;;;;8229708;28;20342;-67
2023/07/27 11:23:46;;;;;;;3.88;2.33;;;;;25.30;95971.00;;;;8229677;28;20263;-66
2023/07/27 11:27:52;;;;;;;3.17;2.40;;;;;25.50;95959.00;;;;8221340;28;20661;-67
2023/07/27 11:31:59;;;;;;;2.53;2.30;;;;;26.20;95949.00;;;;8223477;28;20580;-66
2023/07/27 11:36:04;;;;;;;3.45;2.33;;;;;26.40;95951.00;;;;8231324;28;20210;-67
2023/07/27 11:40:19;;;;;;;2.50;2.30;;;;;26.40;95945.00;;;;8232510;28;20273;-66
2023/07/27 11:44:23;;;;;;;3.80;2.67;;;;;26.50;95947.00;;;;8234614;28;20217;-66
2023/07/27 11:48:27;;;;;;;2.58;2.40;;;;;26.20;95940.00;;;;8230106;28;20212;-67
2023/07/27 11:52:31;;;;;;;5.90;2.65;;;;;25.80;95941.00;;;;8238731;28;20318;-66
2023/07/27 11:56:39;;;;;;;4.30;2.50;;;;;25.40;95938.00;;;;8229924;28;20199;-66
2023/07/27 12:00:50;;;;;;;5.72;3.28;;;;;24.80;95931.00;;;;8236406;28;20242;-66
2023/07/27 12:04:56;;;;;;;3.33;2.50;;;;;24.60;95923.00;;;;8232443;28;20811;-67
2023/07/27 12:09:00;;;;;;;2.72;2.40;;;;;24.60;95919.00;;;;8231078;28;20203;-66
2023/07/27 12:13:07;;;;;;;2.90;2.40;;;;;24.60;95908.00;;;;8231895;28;20245;-66
2023/07/27 12:17:14;;;;;;;4.53;3.08;;;;;24.60;95892.00;;;;8226402;28;20219;-67
2023/07/27 12:21:23;;;;;;;3.30;3.00;;;;;24.50;95890.00;;;;8230175;28;20760;-67
2023/07/27 12:25:30;;;;;;;4.00;2.80;;;;;24.40;95888.00;;;;8228709;28;20206;-66
2023/07/27 12:29:37;;;;;;;2.53;2.30;;;;;24.30;95883.00;;;;8224983;28;20204;-65
2023/07/27 12:33:46;;;;;;;3.67;2.38;;;;;23.90;95881.00;;;;8223187;28;20215;-65
2023/07/27 12:37:54;;;;;;;2.63;2.42;;;;;23.60;95885.00;;;;8227098;28;20927;-66
2023/07/27 12:41:57;;;;;;;6.25;2.67;;;;;23.40;95881.00;;;;8220018;28;20211;-65
2023/07/27 12:46:05;;;;;;;2.63;2.38;;;;;23.20;95883.00;;;;8223342;28;20241;-65
2023/07/27 12:50:09;;;;;;;3.17;2.17;;;;;23.20;95877.00;;;;8237050;28;20215;-65
2023/07/27 12:54:14;;;;;;;2.65;2.35;;;;;23.30;95868.00;;;;8230762;28;20270;-66
2023/07/27 12:58:19;;;;;;;2.85;2.65;;;;;23.40;95864.00;;;;8226560;28;20239;-66
2023/07/27 13:02:24;;;;;;;2.78;2.30;;;;;23.60;95860.00;;;;8229147;28;20316;-66
2023/07/27 13:06:28;;;;;;;3.25;2.47;;;;;23.70;95851.00;;;;8236067;28;20295;-66
2023/07/27 13:10:36;;;;;;;4.55;2.92;;;;;23.80;95843.00;;;;8228950;28;20311;-65
2023/07/27 13:14:39;;;;;;;2.28;2.17;;;;;23.80;95848.00;;;;8229805;28;20211;-67
2023/07/27 13:18:44;;;;;;;3.53;2.45;;;;;23.80;95853.00;;;;8227251;28;20239;-65
2023/07/27 13:22:47;;;;;;;4.05;2.65;;;;;23.70;95849.00;;;;8225156;28;20281;-67
2023/07/27 13:26:50;;;;;;;4.28;2.67;;;;;23.60;95855.00;;;;8228760;28;20242;-67
2023/07/27 13:30:54;;;;;;;2.72;2.42;;;;;23.50;95851.00;;;;8230376;28;20206;-66
2023/07/27 13:35:04;;;;;;;3.53;2.67;;;;;23.40;95862.00;;;;8238180;28;20653;-66
2023/07/27 13:39:08;;;;;;;5.78;1.80;;;;;23.10;95867.00;;;;8231269;28;20234;-66
2023/07/27 13:43:12;;;;;;;3.70;1.90;;;;;22.10;95873.00;;;;8232726;28;20294;-66
2023/07/27 13:47:15;;;;;;;2.13;2.03;;;;;21.50;95856.00;;;;8242938;28;20273;-65
2023/07/27 13:51:20;;;;;;;2.90;1.77;;;;;21.20;95867.00;;;;8230040;28;20211;-65
2023/07/27 13:55:23;;;;;;;3.38;2.15;;;;;21.10;95866.00;;;;8230259;28;20287;-65
2023/07/27 13:59:27;;;;;;;2.30;1.63;;;;;21.00;95855.00;;;;8237809;28;20589;-66
2023/07/27 14:03:30;;;;;;;3.97;2.15;;;;;21.00;95853.00;;;;8237065;28;20249;-65
2023/07/27 14:07:35;;;;;;;3.72;2.08;;;;;21.10;95852.00;;;;8230442;28;20647;-66
2023/07/27 14:11:41;;;;;;;2.10;2.00;;;;;21.30;95851.00;;;;8227803;28;20217;-66
2023/07/27 14:15:47;;;;;;;2.20;1.95;;;;;21.20;95851.00;;;;8229311;28;20305;-66
2023/07/27 14:19:52;;;;;;;4.32;1.70;;;;;21.00;95844.00;;;;8230137;28;20682;-66
2023/07/27 14:23:57;;;;;;;3.67;2.15;;;;;20.80;95838.00;;;;8233471;28;20297;-67
2023/07/27 14:28:00;;;;;;;2.00;1.90;;;;;20.50;95837.00;;;;8232648;28;20313;-67
2023/07/27 14:32:03;;;;;;;3.38;2.22;;;;;20.20;95839.00;;;;8240729;28;20950;-66
2023/07/27 14:36:07;;;;;;;2.22;2.03;;;;;20.00;95836.00;;;;8236954;28;20198;-66
2023/07/27 14:40:23;;;;;;;4.60;2.15;;;;;19.80;95830.00;;;;8232199;28;20239;-66
2023/07/27 14:44:29;;;;;;;2.63;2.42;;;;;19.60;95837.00;;;;8234811;28;20215;-66
2023/07/27 14:48:33;;;;;;;2.30;2.10;;;;;19.50;95837.00;;;;8231086;28;20235;-67
2023/07/27 14:52:39;;;;;;;2.50;2.20;;;;;19.30;95843.00;;;;8229169;28;20840;-68
2023/07/27 14:56:48;;;;;;;2.72;2.53;;;;;19.20;95843.00;;;;8227996;28;20206;-68
2023/07/27 15:00:54;;;;;;;2.60;2.40;;;;;19.00;95828.00;;;;8230092;28;20227;-70
2023/07/27 15:05:01;;;;;;;3.70;2.80;;;;;18.70;95837.00;;;;8182490;28;1390231;-71
2023/07/27 15:09:06;;;;;;;6.28;2.40;;;;;18.60;95827.00;;;;8233433;28;20326;-70
2023/07/27 15:13:10;;;;;;;5.57;2.67;;;;;18.40;95832.00;;;;8234493;28;20299;-69
2023/07/27 15:17:13;;;;;;;7.03;2.80;;;;;18.30;95834.00;;;;8239756;28;20259;-70
2023/07/27 15:21:17;;;;;;;4.95;2.92;;;;;18.10;95827.00;;;;8240041;28;20298;-71
2023/07/27 15:25:23;;;;;;;6.32;3.35;;;;;18.00;95818.00;;;;8229193;28;20212;-69
2023/07/27 15:29:28;;;;;;;3.20;2.90;;;;;17.90;95812.00;;;;8238581;28;20206;-70
2023/07/27 15:33:36;;;;;;;3.42;2.88;;;;;17.90;95813.00;;;;8235703;28;20214;-70
2023/07/27 15:37:39;;;;;;;3.13;2.92;;;;;18.10;95804.00;;;;8236394;28;20640;-70
2023/07/27 15:41:43;;;;;;;3.42;2.80;;;;;18.20;95815.00;;;;8232764;28;20854;-69
2023/07/27 15:45:50;;;;;;;3.05;2.70;;;;;18.10;95819.00;;;;8230059;28;20211;-69
2023/07/27 15:49:53;;;;;;;4.78;2.92;;;;;17.90;95807.00;;;;8233957;28;20663;-70
2023/07/27 15:53:59;;;;;;;3.50;2.92;;;;;17.90;95794.00;;;;8233016;28;20199;-69
2023/07/27 15:58:07;;;;;;;8.05;3.10;;;;;18.00;95790.00;;;;8234820;28;20294;-68
2023/07/27 16:02:12;;;;;;;5.35;3.20;;;;;18.10;95791.00;;;;8230058;28;20237;-67
2023/07/27 16:06:18;;;;;;;6.25;3.30;;;;;18.00;95790.00;;;;8227723;28;20285;-68
2023/07/27 16:10:22;;;;;;;5.07;3.05;;;;;18.00;95785.00;;;;8237286;28;20321;-67
2023/07/27 16:14:25;;;;;;;3.35;2.97;;;;;18.10;95775.00;;;;8230478;28;20656;-67
2023/07/27 16:18:30;;;;;;;7.30;3.03;;;;;18.10;95784.00;;;;8234480;28;20204;-67
2023/07/27 16:22:39;;;;;;;5.50;3.20;;;;;18.10;95795.00;;;;8229782;28;20207;-68
2023/07/27 16:26:43;;;;;;;4.20;3.05;;;;;18.00;95793.00;;;;8234844;28;20692;-70
2023/07/27 16:30:47;;;;;;;4.55;3.47;;;;;17.80;95799.00;;;;8225166;28;20242;-69
2023/07/27 16:34:51;;;;;;;4.30;3.15;;;;;17.70;95796.00;;;;8221938;28;20222;-70
2023/07/27 16:38:55;;;;;;;3.72;3.20;;;;;17.60;95797.00;;;;8224759;28;20227;-69
2023/07/27 16:43:00;;;;;;;3.95;3.55;;;;;17.60;95796.00;;;;8223328;28;20251;-71
2023/07/27 16:47:03;;;;;;;4.45;3.58;;;;;17.60;95785.00;;;;8222952;28;20249;-69
2023/07/27 16:51:10;;;;;;;4.75;3.83;;;;;17.50;95776.00;;;;8223590;28;20211;-68
2023/07/27 16:55:13;;;;;;;6.80;4.07;;;;;17.50;95780.00;;;;8219074;28;20278;-70
2023/07/27 16:59:16;;;;;;;5.60;3.67;;;;;17.50;95779.00;;;;8219837;28;20688;-70
2023/07/27 17:03:24;;;;;;;7.45;3.95;;;;;17.50;95770.00;;;;8218912;28;20266;-70
2023/07/27 17:07:32;;;;;;;6.40;4.22;;;;;17.60;95769.00;;;;8224492;28;20210;-68
2023/07/27 17:11:36;;;;;;;7.03;4.30;;;;;17.70;95769.00;;;;8231125;28;20789;-71
2023/07/27 17:15:39;;;;;;;7.30;4.50;;;;;17.70;95771.00;;;;8218002;28;20291;-70
2023/07/27 17:19:43;;;;;;;6.78;4.35;;;;;17.70;95768.00;;;;8219482;28;20227;-69
2023/07/27 17:23:49;;;;;;;6.25;4.63;;;;;17.80;95773.00;;;;8224656;28;20748;-70
2023/07/27 17:27:52;;;;;;;6.95;5.05;;;;;17.90;95768.00;;;;8220170;28;20238;-68
2023/07/27 17:31:55;;;;;;;6.68;4.60;;;;;18.00;95766.00;;;;8220183;28;20212;-68
2023/07/27 17:36:02;;;;;;;5.90;4.68;;;;;18.00;95765.00;;;;8217764;28;20203;-71
2023/07/27 17:40:10;;;;;;;5.80;4.35;;;;;17.90;95750.00;;;;8219175;28;20235;-72
2023/07/27 17:44:13;;;;;;;7.13;4.30;;;;;18.00;95758.00;;;;8222493;28;20207;-68
2023/07/27 17:48:21;;;;;;;6.93;4.45;;;;;18.00;95757.00;;;;8220725;28;20254;-69
2023/07/27 17:52:25;;;;;;;4.97;4.07;;;;;18.00;95756.00;;;;8218864;28;20226;-70
2023/07/27 17:56:29;;;;;;;4.93;4.07;;;;;17.90;95752.00;;;;8217983;28;20257;-67
2023/07/27 18:00:35;;;;;;;4.93;4.22;;;;;18.00;95758.00;;;;8226054;28;20231;-70
2023/07/27 18:04:40;;;;;;;7.45;4.68;;;;;18.00;95747.00;;;;8237491;28;20289;-69
2023/07/27 18:08:43;;;;;;;4.55;4.07;;;;;18.10;95749.00;;;;8232771;28;20196;-71
2023/07/27 18:12:48;;;;;;;8.02;4.07;;;;;18.10;95753.00;;;;8233835;28;20196;-68
2023/07/27 18:16:51;;;;;;;7.53;4.35;;;;;18.20;95747.00;;;;8229667;28;20210;-66
2023/07/27 18:20:54;;;;;;;5.35;4.05;;;;;18.20;95755.00;;;;8233551;28;20317;-68
2023/07/27 18:24:59;;;;;;;5.80;4.07;;;;;18.20;95754.00;;;;8239920;28;20246;-69
2023/07/27 18:29:06;;;;;;;9.55;4.43;;;;;18.20;95765.00;;;;8231598;28;20246;-68
2023/07/27 18:33:10;;;;;;;7.07;4.38;;;;;18.20;95759.00;;;;8232543;28;20196;-71
2023/07/27 18:37:14;;;;;;;6.28;4.38;;;;;18.20;95757.00;;;;8235877;28;20211;-70
2023/07/27 18:41:20;;;;;;;6.88;5.00;;;;;18.20;95757.00;;;;8235680;28;20397;-68
2023/07/27 18:45:25;;;;;;;7.20;4.45;;;;;18.10;95759.00;;;;8235815;28;20691;-73
2023/07/27 18:49:28;;;;;;;5.53;4.57;;;;;17.90;95756.00;;;;8244158;28;21682;-70
2023/07/27 18:53:31;;;;;;;8.38;5.10;;;;;17.90;95753.00;;;;8246920;28;20241;-73
2023/07/27 18:57:34;;;;;;;11.70;5.32;;;;;17.80;95751.00;;;;8234035;28;20203;-70
2023/07/27 19:01:44;;;;;;;6.93;4.72;;;;;17.70;95750.00;;;;8228312;28;20238;-73
2023/07/27 19:05:50;;;;;;;8.77;5.47;;;;;17.70;95757.00;;;;8228732;28;20701;-76
2023/07/27 19:09:53;;;;;;;8.55;5.40;;;;;17.60;95763.00;;;;8234973;28;20353;-74
2023/07/27 19:13:56;;;;;;;8.45;5.60;;;;;17.60;95773.00;;;;8221518;28;20242;-69
2023/07/27 19:18:04;;;;;;;10.85;6.00;;;;;17.60;95773.00;;;;8230362;28;20238;-73
2023/07/27 19:22:10;;;;;;;7.20;5.43;;;;;17.60;95771.00;;;;8226708;28;20343;-73
2023/07/27 19:26:19;;;;;;;8.52;5.22;;;;;17.60;95775.00;;;;8236461;28;20239;-71
2023/07/27 19:30:28;;;;;;;11.32;6.15;;;;;17.60;95771.00;;;;8232057;28;20202;-69
2023/07/27 19:34:33;;;;;;;10.15;5.78;;;;;17.70;95766.00;;;;8234552;28;20243;-77
2023/07/27 19:38:43;;;;;;;9.05;5.55;;;;;17.70;95758.00;;;;8229259;28;20203;-74
2023/07/27 19:42:46;;;;;;;9.05;5.88;;;;;17.70;95754.00;;;;8241884;28;20226;-75
2023/07/27 19:46:50;;;;;;;7.57;5.40;;;;;17.60;95751.00;;;;8240591;28;20639;-74
2023/07/27 19:50:56;;;;;;;9.70;6.07;;;;;17.60;95748.00;;;;8238805;28;20207;-72
2023/07/27 19:54:59;;;;;;;11.30;6.10;;;;;17.50;95758.00;;;;8234639;28;20217;-71
2023/07/27 19:59:06;;;;;;;11.85;6.70;;;;;17.40;95764.00;;;;8243288;28;20294;-69
2023/07/27 20:03:10;;;;;;;10.80;5.85;;;;;17.40;95762.00;;;;8233093;28;20285;-72
2023/07/27 20:07:17;;;;;;;8.95;6.10;;;;;17.40;95760.00;;;;8227971;28;20207;-70
2023/07/27 20:11:26;;;;;;;7.40;5.45;;;;;17.40;95766.00;;;;8232679;28;20203;-69
2023/07/27 20:15:31;;;;;;;9.35;5.70;;;;;17.30;95758.00;;;;8225985;28;20940;-66
2023/07/27 20:19:36;;;;;;;8.82;6.20;;;;;17.30;95758.00;;;;8233324;28;20277;-74
2023/07/27 20:23:40;;;;;;;11.02;6.65;;;;;17.30;95754.00;;;;8235616;28;20334;-71